sensor_id;sensor_type;location;lat;lon;timestamp;P1;durP1;ratioP1;P2;durP2;ratioP2
16524;SDS011;8375;33.594;-117.718;2023-03-14T00:01:09;8.27;;;4.73;;
16524;SDS011;8375;33.594;-117.718;2023-03-14T00:03:41;8.50;;;4.63;;
16524;SDS011;8375;33.594;-117.718;2023-03-14T00:06:10;6.77;;;4.53;;
16524;SDS011;8375;33.594;-117.718;2023-03-14T00:08:40;8.77;;;4.43;;
16524;SDS011;8375;33.594;-117.718;2023-03-14T00:11:09;6.13;;;4.10;;
16524;SDS011;8375;33.594;-117.718;2023-03-14T00:13:39;7.97;;;4.60;;
16524;SDS011;8375;33.594;-117.718;2023-03-14T00:16:09;6.33;;;4.30;;
16524;SDS011;8375;33.594;-117.718;2023-03-14T00:18:40;5.43;;;4.50;;
16524;SDS011;8375;33.594;-117.718;2023-03-14T00:21:09;5.17;;;4.30;;
16524;SDS011;8375;33.594;-117.718;2023-03-14T00:23:39;7.83;;;4.67;;
16524;SDS011;8375;33.594;-117.718;2023-03-14T00:26:09;8.10;;;4.77;;
16524;SDS011;8375;33.594;-117.718;2023-03-14T00:28:39;9.47;;;4.87;;
16524;SDS011;8375;33.594;-117.718;2023-03-14T00:31:09;8.73;;;5.27;;
16524;SDS011;8375;33.594;-117.718;2023-03-14T00:33:40;9.10;;;5.33;;
16524;SDS011;8375;33.594;-117.718;2023-03-14T00:36:10;9.87;;;5.10;;
16524;SDS011;8375;33.594;-117.718;2023-03-14T00:38:40;6.60;;;5.20;;
16524;SDS011;8375;33.594;-117.718;2023-03-14T00:41:10;7.17;;;4.83;;
16524;SDS011;8375;33.594;-117.718;2023-03-14T00:43:40;9.80;;;6.20;;
16524;SDS011;8375;33.594;-117.718;2023-03-14T00:46:09;9.57;;;5.00;;
16524;SDS011;8375;33.594;-117.718;2023-03-14T00:48:40;7.37;;;4.93;;
16524;SDS011;8375;33.594;-117.718;2023-03-14T00:51:09;8.30;;;4.73;;
16524;SDS011;8375;33.594;-117.718;2023-03-14T00:53:39;6.80;;;5.20;;
16524;SDS011;8375;33.594;-117.718;2023-03-14T00:56:09;7.77;;;4.93;;
16524;SDS011;8375;33.594;-117.718;2023-03-14T00:58:39;7.37;;;5.37;;
16524;SDS011;8375;33.594;-117.718;2023-03-14T01:01:08;7.80;;;5.20;;
16524;SDS011;8375;33.594;-117.718;2023-03-14T01:03:40;7.57;;;5.17;;
16524;SDS011;8375;33.594;-117.718;2023-03-14T01:06:09;5.80;;;4.37;;
16524;SDS011;8375;33.594;-117.718;2023-03-14T01:08:40;9.40;;;4.77;;
16524;SDS011;8375;33.594;-117.718;2023-03-14T01:11:10;7.90;;;4.40;;
16524;SDS011;8375;33.594;-117.718;2023-03-14T01:13:39;6.37;;;4.33;;
16524;SDS011;8375;33.594;-117.718;2023-03-14T01:16:09;7.00;;;4.37;;
16524;SDS011;8375;33.594;-117.718;2023-03-14T01:18:40;7.80;;;4.33;;
16524;SDS011;8375;33.594;-117.718;2023-03-14T01:21:10;6.40;;;4.00;;
16524;SDS011;8375;33.594;-117.718;2023-03-14T01:23:40;7.33;;;4.53;;
16524;SDS011;8375;33.594;-117.718;2023-03-14T01:26:10;7.80;;;4.43;;
16524;SDS011;8375;33.594;-117.718;2023-03-14T01:28:39;7.00;;;4.67;;
16524;SDS011;8375;33.594;-117.718;2023-03-14T01:31:08;7.40;;;4.50;;
16524;SDS011;8375;33.594;-117.718;2023-03-14T01:33:38;8.53;;;4.47;;
16524;SDS011;8375;33.594;-117.718;2023-03-14T01:36:09;10.73;;;4.97;;
16524;SDS011;8375;33.594;-117.718;2023-03-14T01:38:38;7.93;;;4.13;;
16524;SDS011;8375;33.594;-117.718;2023-03-14T01:41:08;8.40;;;4.40;;
16524;SDS011;8375;33.594;-117.718;2023-03-14T01:43:40;5.83;;;3.87;;
16524;SDS011;8375;33.594;-117.718;2023-03-14T01:46:14;8.00;;;4.77;;
16524;SDS011;8375;33.594;-117.718;2023-03-14T01:48:50;7.83;;;4.53;;
16524;SDS011;8375;33.594;-117.718;2023-03-14T01:51:28;7.80;;;4.03;;
16524;SDS011;8375;33.594;-117.718;2023-03-14T01:54:04;8.33;;;4.30;;
16524;SDS011;8375;33.594;-117.718;2023-03-14T01:56:36;10.57;;;4.33;;
16524;SDS011;8375;33.594;-117.718;2023-03-14T01:59:06;12.00;;;4.30;;
16524;SDS011;8375;33.594;-117.718;2023-03-14T02:01:37;8.60;;;3.90;;
16524;SDS011;8375;33.594;-117.718;2023-03-14T02:04:11;16.97;;;5.37;;
16524;SDS011;8375;33.594;-117.718;2023-03-14T02:06:42;19.03;;;4.83;;
16524;SDS011;8375;33.594;-117.718;2023-03-14T02:09:16;7.80;;;3.87;;
16524;SDS011;8375;33.594;-117.718;2023-03-14T02:11:44;6.67;;;3.77;;
16524;SDS011;8375;33.594;-117.718;2023-03-14T02:14:16;8.30;;;3.70;;
16524;SDS011;8375;33.594;-117.718;2023-03-14T02:16:52;8.07;;;4.10;;
16524;SDS011;8375;33.594;-117.718;2023-03-14T02:19:25;6.60;;;3.27;;
16524;SDS011;8375;33.594;-117.718;2023-03-14T02:22:00;6.93;;;3.80;;
16524;SDS011;8375;33.594;-117.718;2023-03-14T02:24:37;7.23;;;3.40;;
16524;SDS011;8375;33.594;-117.718;2023-03-14T02:27:14;9.07;;;3.67;;
16524;SDS011;8375;33.594;-117.718;2023-03-14T02:29:49;12.47;;;4.77;;
16524;SDS011;8375;33.594;-117.718;2023-03-14T02:32:20;7.07;;;3.80;;
16524;SDS011;8375;33.594;-117.718;2023-03-14T02:34:52;7.40;;;3.40;;
16524;SDS011;8375;33.594;-117.718;2023-03-14T02:37:23;7.80;;;3.90;;
16524;SDS011;8375;33.594;-117.718;2023-03-14T02:39:56;10.67;;;4.43;;
16524;SDS011;8375;33.594;-117.718;2023-03-14T02:42:26;9.70;;;4.00;;
16524;SDS011;8375;33.594;-117.718;2023-03-14T02:44:55;10.93;;;4.23;;
16524;SDS011;8375;33.594;-117.718;2023-03-14T02:47:29;8.77;;;4.13;;
16524;SDS011;8375;33.594;-117.718;2023-03-14T02:49:59;9.03;;;3.63;;
16524;SDS011;8375;33.594;-117.718;2023-03-14T02:52:36;8.40;;;4.47;;
16524;SDS011;8375;33.594;-117.718;2023-03-14T02:55:05;8.00;;;3.87;;
16524;SDS011;8375;33.594;-117.718;2023-03-14T02:57:35;9.10;;;4.20;;
16524;SDS011;8375;33.594;-117.718;2023-03-14T03:00:04;5.67;;;3.57;;
16524;SDS011;8375;33.594;-117.718;2023-03-14T03:02:34;10.03;;;3.90;;
16524;SDS011;8375;33.594;-117.718;2023-03-14T03:05:03;6.43;;;3.77;;
16524;SDS011;8375;33.594;-117.718;2023-03-14T03:07:32;8.77;;;3.70;;
16524;SDS011;8375;33.594;-117.718;2023-03-14T03:10:01;8.13;;;3.93;;
16524;SDS011;8375;33.594;-117.718;2023-03-14T03:12:29;9.17;;;3.63;;
16524;SDS011;8375;33.594;-117.718;2023-03-14T03:15:00;12.50;;;3.87;;
16524;SDS011;8375;33.594;-117.718;2023-03-14T03:17:28;9.40;;;3.87;;
16524;SDS011;8375;33.594;-117.718;2023-03-14T03:19:57;9.83;;;3.77;;
16524;SDS011;8375;33.594;-117.718;2023-03-14T03:22:26;12.00;;;3.97;;
16524;SDS011;8375;33.594;-117.718;2023-03-14T03:24:54;8.97;;;3.90;;
16524;SDS011;8375;33.594;-117.718;2023-03-14T03:27:23;15.47;;;4.17;;
16524;SDS011;8375;33.594;-117.718;2023-03-14T03:29:52;14.27;;;4.53;;
16524;SDS011;8375;33.594;-117.718;2023-03-14T03:32:22;9.63;;;4.53;;
16524;SDS011;8375;33.594;-117.718;2023-03-14T03:34:51;11.90;;;4.30;;
16524;SDS011;8375;33.594;-117.718;2023-03-14T03:37:20;9.03;;;3.83;;
16524;SDS011;8375;33.594;-117.718;2023-03-14T03:39:49;11.03;;;4.00;;
16524;SDS011;8375;33.594;-117.718;2023-03-14T03:42:18;9.47;;;3.77;;
16524;SDS011;8375;33.594;-117.718;2023-03-14T03:44:47;11.97;;;3.97;;
16524;SDS011;8375;33.594;-117.718;2023-03-14T03:47:16;7.87;;;3.87;;
16524;SDS011;8375;33.594;-117.718;2023-03-14T03:49:46;13.23;;;4.47;;
16524;SDS011;8375;33.594;-117.718;2023-03-14T03:52:15;11.97;;;4.90;;
16524;SDS011;8375;33.594;-117.718;2023-03-14T03:54:43;7.70;;;4.83;;
16524;SDS011;8375;33.594;-117.718;2023-03-14T03:57:12;16.70;;;5.53;;
16524;SDS011;8375;33.594;-117.718;2023-03-14T03:59:41;8.90;;;4.53;;
16524;SDS011;8375;33.594;-117.718;2023-03-14T04:02:09;10.87;;;5.53;;
16524;SDS011;8375;33.594;-117.718;2023-03-14T04:04:38;11.37;;;5.03;;
16524;SDS011;8375;33.594;-117.718;2023-03-14T04:07:08;12.83;;;5.00;;
16524;SDS011;8375;33.594;-117.718;2023-03-14T04:09:39;11.80;;;5.57;;
16524;SDS011;8375;33.594;-117.718;2023-03-14T04:12:08;14.03;;;6.30;;
16524;SDS011;8375;33.594;-117.718;2023-03-14T04:14:36;12.60;;;6.20;;
16524;SDS011;8375;33.594;-117.718;2023-03-14T04:17:06;11.70;;;6.37;;
16524;SDS011;8375;33.594;-117.718;2023-03-14T04:19:35;11.20;;;6.83;;
16524;SDS011;8375;33.594;-117.718;2023-03-14T04:22:04;10.33;;;6.90;;
16524;SDS011;8375;33.594;-117.718;2023-03-14T04:24:34;12.00;;;6.97;;
16524;SDS011;8375;33.594;-117.718;2023-03-14T04:27:03;8.27;;;6.13;;
16524;SDS011;8375;33.594;-117.718;2023-03-14T04:29:31;12.00;;;6.20;;
16524;SDS011;8375;33.594;-117.718;2023-03-14T04:32:00;11.90;;;6.50;;
16524;SDS011;8375;33.594;-117.718;2023-03-14T04:34:29;10.27;;;6.40;;
16524;SDS011;8375;33.594;-117.718;2023-03-14T04:36:58;10.77;;;6.60;;
16524;SDS011;8375;33.594;-117.718;2023-03-14T04:39:27;11.17;;;6.20;;
16524;SDS011;8375;33.594;-117.718;2023-03-14T04:41:57;15.07;;;6.93;;
16524;SDS011;8375;33.594;-117.718;2023-03-14T04:44:26;10.23;;;6.20;;
16524;SDS011;8375;33.594;-117.718;2023-03-14T04:46:55;9.93;;;6.87;;
16524;SDS011;8375;33.594;-117.718;2023-03-14T04:49:24;14.10;;;7.33;;
16524;SDS011;8375;33.594;-117.718;2023-03-14T04:51:52;15.73;;;7.77;;
16524;SDS011;8375;33.594;-117.718;2023-03-14T04:54:21;13.83;;;7.03;;
16524;SDS011;8375;33.594;-117.718;2023-03-14T04:56:50;14.47;;;7.87;;
16524;SDS011;8375;33.594;-117.718;2023-03-14T04:59:20;12.87;;;6.80;;
16524;SDS011;8375;33.594;-117.718;2023-03-14T05:01:49;10.27;;;7.13;;
16524;SDS011;8375;33.594;-117.718;2023-03-14T05:04:17;10.27;;;7.67;;
16524;SDS011;8375;33.594;-117.718;2023-03-14T05:06:46;12.67;;;7.67;;
16524;SDS011;8375;33.594;-117.718;2023-03-14T05:09:15;12.70;;;7.63;;
16524;SDS011;8375;33.594;-117.718;2023-03-14T05:11:43;12.70;;;8.63;;
16524;SDS011;8375;33.594;-117.718;2023-03-14T05:14:12;12.33;;;9.20;;
16524;SDS011;8375;33.594;-117.718;2023-03-14T05:16:42;13.67;;;8.27;;
16524;SDS011;8375;33.594;-117.718;2023-03-14T05:19:11;21.60;;;10.07;;
16524;SDS011;8375;33.594;-117.718;2023-03-14T05:21:40;13.27;;;8.43;;
16524;SDS011;8375;33.594;-117.718;2023-03-14T05:24:08;17.27;;;8.83;;
16524;SDS011;8375;33.594;-117.718;2023-03-14T05:26:37;15.00;;;8.80;;
16524;SDS011;8375;33.594;-117.718;2023-03-14T05:29:06;14.43;;;9.90;;
16524;SDS011;8375;33.594;-117.718;2023-03-14T05:31:35;13.70;;;9.13;;
16524;SDS011;8375;33.594;-117.718;2023-03-14T05:34:05;14.47;;;9.00;;
16524;SDS011;8375;33.594;-117.718;2023-03-14T05:36:34;17.03;;;9.43;;
16524;SDS011;8375;33.594;-117.718;2023-03-14T05:39:03;15.37;;;9.60;;
16524;SDS011;8375;33.594;-117.718;2023-03-14T05:41:32;18.87;;;9.73;;
16524;SDS011;8375;33.594;-117.718;2023-03-14T05:44:01;14.70;;;8.73;;
16524;SDS011;8375;33.594;-117.718;2023-03-14T05:46:30;14.87;;;9.97;;
16524;SDS011;8375;33.594;-117.718;2023-03-14T05:48:59;15.60;;;10.37;;
16524;SDS011;8375;33.594;-117.718;2023-03-14T05:51:29;14.93;;;9.67;;
16524;SDS011;8375;33.594;-117.718;2023-03-14T05:53:58;15.37;;;9.73;;
16524;SDS011;8375;33.594;-117.718;2023-03-14T05:56:27;16.13;;;9.93;;
16524;SDS011;8375;33.594;-117.718;2023-03-14T05:58:56;16.97;;;10.00;;
16524;SDS011;8375;33.594;-117.718;2023-03-14T06:01:27;12.73;;;8.77;;
16524;SDS011;8375;33.594;-117.718;2023-03-14T06:03:56;17.60;;;10.47;;
16524;SDS011;8375;33.594;-117.718;2023-03-14T06:06:24;16.80;;;10.50;;
16524;SDS011;8375;33.594;-117.718;2023-03-14T06:08:55;17.83;;;10.57;;
16524;SDS011;8375;33.594;-117.718;2023-03-14T06:11:23;16.93;;;11.13;;
16524;SDS011;8375;33.594;-117.718;2023-03-14T06:13:52;15.90;;;10.13;;
16524;SDS011;8375;33.594;-117.718;2023-03-14T06:16:21;20.70;;;11.47;;
16524;SDS011;8375;33.594;-117.718;2023-03-14T06:18:50;17.67;;;10.47;;
16524;SDS011;8375;33.594;-117.718;2023-03-14T06:21:18;16.77;;;10.80;;
16524;SDS011;8375;33.594;-117.718;2023-03-14T06:23:47;18.37;;;11.07;;
16524;SDS011;8375;33.594;-117.718;2023-03-14T06:26:17;18.40;;;11.03;;
16524;SDS011;8375;33.594;-117.718;2023-03-14T06:28:47;16.80;;;12.37;;
16524;SDS011;8375;33.594;-117.718;2023-03-14T06:31:16;17.27;;;12.50;;
16524;SDS011;8375;33.594;-117.718;2023-03-14T06:33:45;22.63;;;14.20;;
16524;SDS011;8375;33.594;-117.718;2023-03-14T06:36:14;19.70;;;13.70;;
16524;SDS011;8375;33.594;-117.718;2023-03-14T06:38:42;17.20;;;13.73;;
16524;SDS011;8375;33.594;-117.718;2023-03-14T06:41:11;21.03;;;13.70;;
16524;SDS011;8375;33.594;-117.718;2023-03-14T06:43:41;17.83;;;13.73;;
16524;SDS011;8375;33.594;-117.718;2023-03-14T06:46:11;21.50;;;14.00;;
16524;SDS011;8375;33.594;-117.718;2023-03-14T06:48:41;23.17;;;14.60;;
16524;SDS011;8375;33.594;-117.718;2023-03-14T06:51:09;20.40;;;14.30;;
16524;SDS011;8375;33.594;-117.718;2023-03-14T06:53:38;22.53;;;15.57;;
16524;SDS011;8375;33.594;-117.718;2023-03-14T06:56:07;26.17;;;14.57;;
16524;SDS011;8375;33.594;-117.718;2023-03-14T06:58:36;27.27;;;15.23;;
16524;SDS011;8375;33.594;-117.718;2023-03-14T07:01:10;19.97;;;14.63;;
16524;SDS011;8375;33.594;-117.718;2023-03-14T07:03:47;25.77;;;14.00;;
16524;SDS011;8375;33.594;-117.718;2023-03-14T07:06:17;26.03;;;14.87;;
16524;SDS011;8375;33.594;-117.718;2023-03-14T07:08:45;24.23;;;13.60;;
16524;SDS011;8375;33.594;-117.718;2023-03-14T07:11:14;22.07;;;13.67;;
16524;SDS011;8375;33.594;-117.718;2023-03-14T07:13:46;22.53;;;12.63;;
16524;SDS011;8375;33.594;-117.718;2023-03-14T07:16:17;20.87;;;12.70;;
16524;SDS011;8375;33.594;-117.718;2023-03-14T07:18:45;23.27;;;12.73;;
16524;SDS011;8375;33.594;-117.718;2023-03-14T07:21:14;22.37;;;12.87;;
16524;SDS011;8375;33.594;-117.718;2023-03-14T07:23:43;22.83;;;12.97;;
16524;SDS011;8375;33.594;-117.718;2023-03-14T07:26:12;22.67;;;12.97;;
16524;SDS011;8375;33.594;-117.718;2023-03-14T07:28:40;22.77;;;12.93;;
16524;SDS011;8375;33.594;-117.718;2023-03-14T07:31:09;24.87;;;13.17;;
16524;SDS011;8375;33.594;-117.718;2023-03-14T07:33:40;23.07;;;11.97;;
16524;SDS011;8375;33.594;-117.718;2023-03-14T07:36:09;22.37;;;11.93;;
16524;SDS011;8375;33.594;-117.718;2023-03-14T07:38:38;21.30;;;12.13;;
16524;SDS011;8375;33.594;-117.718;2023-03-14T07:41:06;21.20;;;11.90;;
16524;SDS011;8375;33.594;-117.718;2023-03-14T07:43:35;24.40;;;12.90;;
16524;SDS011;8375;33.594;-117.718;2023-03-14T07:46:04;24.93;;;12.60;;
16524;SDS011;8375;33.594;-117.718;2023-03-14T07:48:33;21.70;;;11.53;;
16524;SDS011;8375;33.594;-117.718;2023-03-14T07:51:03;18.53;;;10.00;;
16524;SDS011;8375;33.594;-117.718;2023-03-14T07:53:32;19.87;;;11.57;;
16524;SDS011;8375;33.594;-117.718;2023-03-14T07:56:01;18.50;;;10.80;;
16524;SDS011;8375;33.594;-117.718;2023-03-14T07:58:30;21.50;;;11.73;;
16524;SDS011;8375;33.594;-117.718;2023-03-14T08:00:58;23.20;;;10.70;;
16524;SDS011;8375;33.594;-117.718;2023-03-14T08:03:27;23.07;;;11.63;;
16524;SDS011;8375;33.594;-117.718;2023-03-14T08:05:56;19.40;;;10.30;;
16524;SDS011;8375;33.594;-117.718;2023-03-14T08:08:26;18.00;;;9.97;;
16524;SDS011;8375;33.594;-117.718;2023-03-14T08:10:55;17.70;;;11.33;;
16524;SDS011;8375;33.594;-117.718;2023-03-14T08:13:24;20.23;;;10.23;;
16524;SDS011;8375;33.594;-117.718;2023-03-14T08:15:53;17.70;;;10.53;;
16524;SDS011;8375;33.594;-117.718;2023-03-14T08:18:21;17.80;;;10.87;;
16524;SDS011;8375;33.594;-117.718;2023-03-14T08:20:50;19.00;;;11.00;;
16524;SDS011;8375;33.594;-117.718;2023-03-14T08:23:19;19.50;;;10.53;;
16524;SDS011;8375;33.594;-117.718;2023-03-14T08:25:50;20.40;;;11.60;;
16524;SDS011;8375;33.594;-117.718;2023-03-14T08:28:18;20.23;;;10.87;;
16524;SDS011;8375;33.594;-117.718;2023-03-14T08:30:47;22.10;;;10.90;;
16524;SDS011;8375;33.594;-117.718;2023-03-14T08:33:16;16.67;;;10.67;;
16524;SDS011;8375;33.594;-117.718;2023-03-14T08:35:44;19.07;;;11.27;;
16524;SDS011;8375;33.594;-117.718;2023-03-14T08:38:13;22.63;;;11.20;;
16524;SDS011;8375;33.594;-117.718;2023-03-14T08:40:42;20.83;;;11.40;;
16524;SDS011;8375;33.594;-117.718;2023-03-14T08:43:13;19.77;;;12.03;;
16524;SDS011;8375;33.594;-117.718;2023-03-14T08:45:41;19.33;;;11.27;;
16524;SDS011;8375;33.594;-117.718;2023-03-14T08:48:10;18.47;;;11.27;;
16524;SDS011;8375;33.594;-117.718;2023-03-14T08:50:39;18.07;;;11.13;;
16524;SDS011;8375;33.594;-117.718;2023-03-14T08:53:07;19.17;;;11.17;;
16524;SDS011;8375;33.594;-117.718;2023-03-14T08:55:36;17.93;;;11.17;;
16524;SDS011;8375;33.594;-117.718;2023-03-14T08:58:04;16.60;;;11.10;;
16524;SDS011;8375;33.594;-117.718;2023-03-14T09:00:35;21.13;;;11.03;;
16524;SDS011;8375;33.594;-117.718;2023-03-14T09:03:03;17.87;;;11.63;;
16524;SDS011;8375;33.594;-117.718;2023-03-14T09:05:32;17.13;;;11.27;;
16524;SDS011;8375;33.594;-117.718;2023-03-14T09:08:01;17.27;;;10.30;;
16524;SDS011;8375;33.594;-117.718;2023-03-14T09:10:30;15.87;;;10.90;;
16524;SDS011;8375;33.594;-117.718;2023-03-14T09:12:58;19.47;;;11.90;;
16524;SDS011;8375;33.594;-117.718;2023-03-14T09:15:27;18.40;;;10.73;;
16524;SDS011;8375;33.594;-117.718;2023-03-14T09:17:57;19.67;;;11.33;;
16524;SDS011;8375;33.594;-117.718;2023-03-14T09:20:26;16.00;;;10.43;;
16524;SDS011;8375;33.594;-117.718;2023-03-14T09:22:55;19.57;;;11.37;;
16524;SDS011;8375;33.594;-117.718;2023-03-14T09:25:24;16.10;;;10.67;;
16524;SDS011;8375;33.594;-117.718;2023-03-14T09:27:52;21.83;;;11.97;;
16524;SDS011;8375;33.594;-117.718;2023-03-14T09:30:21;20.50;;;12.13;;
16524;SDS011;8375;33.594;-117.718;2023-03-14T09:32:50;19.47;;;11.77;;
16524;SDS011;8375;33.594;-117.718;2023-03-14T09:35:20;18.60;;;11.10;;
16524;SDS011;8375;33.594;-117.718;2023-03-14T09:37:49;22.57;;;13.30;;
16524;SDS011;8375;33.594;-117.718;2023-03-14T09:40:18;20.87;;;12.23;;
16524;SDS011;8375;33.594;-117.718;2023-03-14T09:42:50;18.53;;;11.77;;
16524;SDS011;8375;33.594;-117.718;2023-03-14T09:45:23;17.77;;;11.20;;
16524;SDS011;8375;33.594;-117.718;2023-03-14T09:47:55;16.77;;;10.47;;
16524;SDS011;8375;33.594;-117.718;2023-03-14T09:50:29;19.97;;;11.47;;
16524;SDS011;8375;33.594;-117.718;2023-03-14T09:53:06;20.00;;;11.43;;
16524;SDS011;8375;33.594;-117.718;2023-03-14T09:55:39;18.70;;;10.33;;
16524;SDS011;8375;33.594;-117.718;2023-03-14T09:58:09;21.23;;;11.50;;
16524;SDS011;8375;33.594;-117.718;2023-03-14T10:00:40;19.10;;;11.23;;
16524;SDS011;8375;33.594;-117.718;2023-03-14T10:03:22;17.50;;;10.53;;
16524;SDS011;8375;33.594;-117.718;2023-03-14T10:05:57;19.00;;;11.00;;
16524;SDS011;8375;33.594;-117.718;2023-03-14T10:08:26;16.80;;;11.70;;
16524;SDS011;8375;33.594;-117.718;2023-03-14T10:10:55;15.47;;;11.50;;
16524;SDS011;8375;33.594;-117.718;2023-03-14T10:13:25;19.60;;;12.27;;
16524;SDS011;8375;33.594;-117.718;2023-03-14T10:15:55;19.17;;;12.47;;
16524;SDS011;8375;33.594;-117.718;2023-03-14T10:18:27;17.20;;;12.20;;
16524;SDS011;8375;33.594;-117.718;2023-03-14T10:21:05;21.87;;;12.33;;
16524;SDS011;8375;33.594;-117.718;2023-03-14T10:23:44;22.87;;;12.77;;
16524;SDS011;8375;33.594;-117.718;2023-03-14T10:26:13;20.70;;;13.33;;
16524;SDS011;8375;33.594;-117.718;2023-03-14T10:28:43;20.87;;;12.27;;
16524;SDS011;8375;33.594;-117.718;2023-03-14T10:31:13;25.23;;;13.83;;
16524;SDS011;8375;33.594;-117.718;2023-03-14T10:33:42;20.63;;;12.70;;
16524;SDS011;8375;33.594;-117.718;2023-03-14T10:36:26;21.80;;;12.77;;
16524;SDS011;8375;33.594;-117.718;2023-03-14T10:38:57;21.67;;;12.63;;
16524;SDS011;8375;33.594;-117.718;2023-03-14T10:41:46;23.53;;;13.17;;
16524;SDS011;8375;33.594;-117.718;2023-03-14T10:44:15;22.63;;;12.60;;
16524;SDS011;8375;33.594;-117.718;2023-03-14T10:46:53;23.83;;;12.93;;
16524;SDS011;8375;33.594;-117.718;2023-03-14T10:49:26;24.07;;;12.83;;
16524;SDS011;8375;33.594;-117.718;2023-03-14T10:51:58;22.50;;;13.20;;
16524;SDS011;8375;33.594;-117.718;2023-03-14T10:54:30;22.07;;;11.67;;
16524;SDS011;8375;33.594;-117.718;2023-03-14T10:56:59;18.77;;;11.57;;
16524;SDS011;8375;33.594;-117.718;2023-03-14T10:59:29;21.73;;;12.00;;
16524;SDS011;8375;33.594;-117.718;2023-03-14T11:02:04;20.40;;;12.17;;
16524;SDS011;8375;33.594;-117.718;2023-03-14T11:04:49;17.57;;;10.80;;
16524;SDS011;8375;33.594;-117.718;2023-03-14T11:07:29;19.37;;;10.83;;
16524;SDS011;8375;33.594;-117.718;2023-03-14T11:10:08;18.73;;;10.57;;
16524;SDS011;8375;33.594;-117.718;2023-03-14T11:12:45;17.60;;;11.50;;
16524;SDS011;8375;33.594;-117.718;2023-03-14T11:15:29;20.37;;;11.67;;
16524;SDS011;8375;33.594;-117.718;2023-03-14T11:18:14;19.23;;;11.30;;
16524;SDS011;8375;33.594;-117.718;2023-03-14T11:21:02;18.43;;;12.43;;
16524;SDS011;8375;33.594;-117.718;2023-03-14T11:23:40;22.50;;;13.77;;
16524;SDS011;8375;33.594;-117.718;2023-03-14T11:26:20;25.07;;;14.53;;
16524;SDS011;8375;33.594;-117.718;2023-03-14T11:28:57;23.27;;;14.77;;
16524;SDS011;8375;33.594;-117.718;2023-03-14T11:31:31;23.70;;;14.53;;
16524;SDS011;8375;33.594;-117.718;2023-03-14T11:34:04;25.30;;;14.33;;
16524;SDS011;8375;33.594;-117.718;2023-03-14T11:36:41;30.20;;;15.77;;
16524;SDS011;8375;33.594;-117.718;2023-03-14T11:39:18;24.37;;;14.10;;
16524;SDS011;8375;33.594;-117.718;2023-03-14T11:41:47;27.57;;;16.23;;
16524;SDS011;8375;33.594;-117.718;2023-03-14T11:44:19;23.27;;;13.33;;
16524;SDS011;8375;33.594;-117.718;2023-03-14T11:46:53;25.83;;;13.73;;
16524;SDS011;8375;33.594;-117.718;2023-03-14T11:49:30;20.40;;;13.87;;
16524;SDS011;8375;33.594;-117.718;2023-03-14T11:52:05;23.57;;;14.20;;
16524;SDS011;8375;33.594;-117.718;2023-03-14T11:54:41;23.40;;;14.93;;
16524;SDS011;8375;33.594;-117.718;2023-03-14T11:57:15;22.70;;;13.77;;
16524;SDS011;8375;33.594;-117.718;2023-03-14T11:59:47;23.23;;;14.33;;
16524;SDS011;8375;33.594;-117.718;2023-03-14T12:02:26;27.23;;;14.53;;
16524;SDS011;8375;33.594;-117.718;2023-03-14T12:08:08;25.20;;;14.60;;
16524;SDS011;8375;33.594;-117.718;2023-03-14T12:11:01;24.93;;;14.73;;
16524;SDS011;8375;33.594;-117.718;2023-03-14T12:13:36;22.90;;;14.13;;
16524;SDS011;8375;33.594;-117.718;2023-03-14T12:16:07;22.67;;;14.10;;
16524;SDS011;8375;33.594;-117.718;2023-03-14T12:25:04;24.47;;;13.60;;
16524;SDS011;8375;33.594;-117.718;2023-03-14T12:27:47;22.67;;;14.53;;
16524;SDS011;8375;33.594;-117.718;2023-03-14T12:30:36;25.47;;;14.13;;
16524;SDS011;8375;33.594;-117.718;2023-03-14T12:35:57;18.33;;;11.83;;
16524;SDS011;8375;33.594;-117.718;2023-03-14T12:38:43;19.33;;;12.23;;
16524;SDS011;8375;33.594;-117.718;2023-03-14T12:41:20;22.13;;;12.80;;
16524;SDS011;8375;33.594;-117.718;2023-03-14T12:43:54;18.97;;;12.83;;
16524;SDS011;8375;33.594;-117.718;2023-03-14T12:46:23;21.77;;;12.80;;
16524;SDS011;8375;33.594;-117.718;2023-03-14T12:48:54;17.80;;;11.77;;
16524;SDS011;8375;33.594;-117.718;2023-03-14T12:51:34;22.60;;;14.13;;
16524;SDS011;8375;33.594;-117.718;2023-03-14T12:54:07;22.60;;;14.10;;
16524;SDS011;8375;33.594;-117.718;2023-03-14T12:56:55;20.63;;;13.63;;
16524;SDS011;8375;33.594;-117.718;2023-03-14T12:59:36;22.27;;;14.30;;
16524;SDS011;8375;33.594;-117.718;2023-03-14T13:02:19;23.63;;;14.23;;
16524;SDS011;8375;33.594;-117.718;2023-03-14T13:04:50;24.57;;;14.67;;
16524;SDS011;8375;33.594;-117.718;2023-03-14T13:07:32;24.73;;;14.37;;
16524;SDS011;8375;33.594;-117.718;2023-03-14T13:12:55;21.90;;;13.43;;
16524;SDS011;8375;33.594;-117.718;2023-03-14T13:15:27;25.00;;;14.30;;
16524;SDS011;8375;33.594;-117.718;2023-03-14T13:18:01;23.50;;;14.20;;
16524;SDS011;8375;33.594;-117.718;2023-03-14T13:20:36;25.97;;;14.70;;
16524;SDS011;8375;33.594;-117.718;2023-03-14T13:23:19;27.20;;;15.40;;
16524;SDS011;8375;33.594;-117.718;2023-03-14T13:25:49;28.77;;;15.67;;
16524;SDS011;8375;33.594;-117.718;2023-03-14T13:28:18;30.37;;;15.73;;
16524;SDS011;8375;33.594;-117.718;2023-03-14T13:30:49;26.27;;;15.17;;
16524;SDS011;8375;33.594;-117.718;2023-03-14T13:33:22;25.17;;;15.00;;
16524;SDS011;8375;33.594;-117.718;2023-03-14T13:35:55;28.70;;;16.00;;
16524;SDS011;8375;33.594;-117.718;2023-03-14T13:38:26;28.10;;;16.60;;
16524;SDS011;8375;33.594;-117.718;2023-03-14T13:40:56;25.83;;;15.00;;
16524;SDS011;8375;33.594;-117.718;2023-03-14T13:43:28;27.27;;;15.13;;
16524;SDS011;8375;33.594;-117.718;2023-03-14T13:46:03;25.00;;;14.73;;
16524;SDS011;8375;33.594;-117.718;2023-03-14T13:48:34;28.53;;;14.80;;
16524;SDS011;8375;33.594;-117.718;2023-03-14T13:51:10;27.97;;;15.07;;
16524;SDS011;8375;33.594;-117.718;2023-03-14T13:53:44;28.87;;;15.07;;
16524;SDS011;8375;33.594;-117.718;2023-03-14T13:56:14;26.77;;;15.33;;
16524;SDS011;8375;33.594;-117.718;2023-03-14T13:58:43;21.83;;;13.67;;
16524;SDS011;8375;33.594;-117.718;2023-03-14T14:01:15;20.70;;;12.67;;
16524;SDS011;8375;33.594;-117.718;2023-03-14T14:03:46;20.87;;;12.70;;
16524;SDS011;8375;33.594;-117.718;2023-03-14T14:06:20;19.13;;;11.47;;
16524;SDS011;8375;33.594;-117.718;2023-03-14T14:08:54;19.27;;;11.70;;
16524;SDS011;8375;33.594;-117.718;2023-03-14T14:11:27;18.33;;;12.00;;
16524;SDS011;8375;33.594;-117.718;2023-03-14T14:14:04;19.37;;;11.33;;
16524;SDS011;8375;33.594;-117.718;2023-03-14T14:16:40;20.93;;;11.10;;
16524;SDS011;8375;33.594;-117.718;2023-03-14T14:19:10;16.60;;;11.57;;
16524;SDS011;8375;33.594;-117.718;2023-03-14T14:21:40;16.97;;;11.13;;
16524;SDS011;8375;33.594;-117.718;2023-03-14T14:24:09;18.13;;;11.57;;
16524;SDS011;8375;33.594;-117.718;2023-03-14T14:26:41;14.30;;;9.23;;
16524;SDS011;8375;33.594;-117.718;2023-03-14T14:29:20;18.23;;;9.83;;
16524;SDS011;8375;33.594;-117.718;2023-03-14T14:32:02;13.07;;;8.93;;
16524;SDS011;8375;33.594;-117.718;2023-03-14T14:34:39;15.63;;;10.00;;
16524;SDS011;8375;33.594;-117.718;2023-03-14T14:37:18;13.53;;;9.50;;
16524;SDS011;8375;33.594;-117.718;2023-03-14T14:39:48;17.43;;;9.87;;
16524;SDS011;8375;33.594;-117.718;2023-03-14T14:42:20;19.50;;;11.53;;